Time;durP1;ratioP1;P1;durP2;ratioP2;P2;SDS_P1;SDS_P2;PMS_P1;PMS_P2;Temp;Humidity;BMP_temperature;BMP_pressure;BME280_temperature;BME280_humidity;BME280_pressure;Samples;Min_cycle;Max_cycle;Signal;HPM_P1;HPM_P2
2024/02/28 00:00:34;;;;;;;181.63;53.17;;;2.90;99.90;;;;;;813998;174;28260;-76
2024/02/28 00:03:01;;;;;;;181.87;50.80;;;3.00;99.90;;;;;;814888;175;26442;-77
2024/02/28 00:05:27;;;;;;;172.10;52.93;;;3.10;99.90;;;;;;815356;175;26433;-77
2024/02/28 00:07:54;;;;;;;148.23;50.37;;;3.10;99.90;;;;;;811975;175;26426;-77
2024/02/28 00:10:21;;;;;;;149.07;49.60;;;3.10;99.90;;;;;;809296;176;26433;-77
2024/02/28 00:12:47;;;;;;;167.37;50.73;;;2.90;99.90;;;;;;811385;176;28084;-77
2024/02/28 00:15:14;;;;;;;169.37;50.73;;;3.20;99.90;;;;;;813866;176;26425;-77
2024/02/28 00:17:41;;;;;;;161.60;51.30;;;3.40;99.90;;;;;;817020;176;26435;-78
2024/02/28 00:20:08;;;;;;;160.37;51.43;;;3.50;99.90;;;;;;814621;176;26456;-77
2024/02/28 00:22:34;;;;;;;147.30;50.63;;;3.60;99.90;;;;;;813104;173;26453;-77
2024/02/28 00:25:01;;;;;;;136.07;46.53;;;3.70;99.90;;;;;;811522;176;26434;-77
2024/02/28 00:27:27;;;;;;;134.90;48.70;;;3.70;99.90;;;;;;814115;176;26434;-77
2024/02/28 00:29:54;;;;;;;138.90;48.90;;;3.70;99.90;;;;;;814071;176;26428;-78
2024/02/28 00:32:21;;;;;;;137.63;49.67;;;3.80;99.90;;;;;;808946;175;26482;-78
2024/02/28 00:34:47;;;;;;;144.27;51.63;;;3.80;99.90;;;;;;813999;174;26438;-78
2024/02/28 00:37:14;;;;;;;126.80;46.20;;;3.80;99.90;;;;;;817058;175;27625;-77
2024/02/28 00:39:40;;;;;;;130.73;51.30;;;3.80;99.90;;;;;;808808;176;26462;-78
2024/02/28 00:42:07;;;;;;;116.00;47.17;;;3.80;99.90;;;;;;807853;176;26442;-77
2024/02/28 00:44:34;;;;;;;132.83;48.57;;;3.80;99.90;;;;;;808954;176;26455;-77
2024/02/28 00:47:00;;;;;;;124.03;48.37;;;3.90;99.90;;;;;;812813;175;26440;-77
2024/02/28 00:49:27;;;;;;;118.13;46.87;;;3.90;99.90;;;;;;818494;176;26427;-78
2024/02/28 00:51:54;;;;;;;131.00;50.13;;;4.00;99.90;;;;;;813760;176;26426;-78
2024/02/28 00:54:21;;;;;;;123.33;48.73;;;3.90;99.90;;;;;;814227;176;26439;-78
2024/02/28 00:56:47;;;;;;;118.30;46.43;;;4.00;99.90;;;;;;817026;176;26420;-78
2024/02/28 00:59:13;;;;;;;127.13;46.83;;;4.00;99.90;;;;;;811903;172;26438;-78
2024/02/28 01:01:40;;;;;;;126.50;46.80;;;4.00;99.90;;;;;;814406;176;26435;-78
2024/02/28 01:04:07;;;;;;;119.37;46.37;;;4.10;99.90;;;;;;818755;173;26431;-78
2024/02/28 01:06:33;;;;;;;116.23;46.73;;;4.10;99.90;;;;;;812511;173;26423;-77
2024/02/28 01:09:00;;;;;;;120.47;45.57;;;4.10;99.90;;;;;;815373;173;26445;-77
2024/02/28 01:11:26;;;;;;;122.40;45.40;;;4.00;99.90;;;;;;811125;175;26441;-77
2024/02/28 01:13:53;;;;;;;121.37;45.93;;;4.10;99.90;;;;;;813952;173;26428;-77
2024/02/28 01:16:20;;;;;;;116.73;45.20;;;4.10;99.90;;;;;;813389;175;26446;-77
2024/02/28 01:18:47;;;;;;;111.33;46.07;;;4.10;99.90;;;;;;810749;175;26440;-78
2024/02/28 01:21:14;;;;;;;116.10;46.77;;;4.00;99.90;;;;;;811401;175;26444;-77
2024/02/28 01:23:40;;;;;;;120.90;48.10;;;4.10;99.90;;;;;;814783;176;26428;-77
2024/02/28 01:26:07;;;;;;;105.40;44.70;;;4.10;99.90;;;;;;816133;176;26491;-78
2024/02/28 01:28:33;;;;;;;107.90;45.60;;;4.20;99.90;;;;;;815647;176;26454;-78
2024/02/28 01:31:01;;;;;;;109.67;46.30;;;4.20;99.90;;;;;;813419;175;26456;-78
2024/02/28 01:33:27;;;;;;;108.37;46.77;;;4.30;99.90;;;;;;809628;172;26471;-78
2024/02/28 01:35:53;;;;;;;114.07;47.30;;;4.30;99.90;;;;;;811257;176;26432;-77
2024/02/28 01:38:20;;;;;;;116.00;48.90;;;4.40;99.90;;;;;;811149;174;28096;-78
2024/02/28 01:40:46;;;;;;;115.53;49.03;;;4.40;99.90;;;;;;810182;170;26608;-79
2024/02/28 01:43:13;;;;;;;133.00;52.00;;;4.40;99.90;;;;;;808011;177;27046;-79
2024/02/28 01:45:39;;;;;;;121.43;49.90;;;4.50;99.90;;;;;;811940;176;26441;-79
2024/02/28 01:48:07;;;;;;;114.33;48.67;;;4.50;99.90;;;;;;822162;174;26404;-80
2024/02/28 01:50:33;;;;;;;114.43;49.23;;;4.60;99.90;;;;;;805438;174;26465;-79
2024/02/28 01:53:00;;;;;;;116.73;49.03;;;4.70;99.90;;;;;;824904;173;26418;-79
2024/02/28 01:55:27;;;;;;;127.57;49.50;;;4.70;99.90;;;;;;820725;173;26404;-78
2024/02/28 01:57:53;;;;;;;127.97;50.43;;;4.70;99.90;;;;;;823601;173;26439;-80
2024/02/28 02:00:20;;;;;;;145.27;57.50;;;4.70;99.90;;;;;;834340;170;26412;-80
2024/02/28 02:02:46;;;;;;;148.30;58.37;;;4.70;99.90;;;;;;820421;171;26384;-78
2024/02/28 02:05:15;;;;;;;149.67;57.30;;;4.60;99.90;;;;;;825966;171;26397;-79
2024/02/28 02:07:40;;;;;;;158.20;60.47;;;4.70;99.90;;;;;;819806;173;26454;-78
2024/02/28 02:10:08;;;;;;;163.83;61.83;;;4.70;99.90;;;;;;815245;174;27017;-80
2024/02/28 02:12:33;;;;;;;150.13;58.83;;;4.70;99.90;;;;;;816958;173;26405;-80
2024/02/28 02:14:59;;;;;;;155.43;59.53;;;4.80;99.90;;;;;;823380;172;26440;-80
2024/02/28 02:17:26;;;;;;;146.20;60.00;;;4.80;99.90;;;;;;818889;173;26425;-79
2024/02/28 02:19:53;;;;;;;155.90;61.97;;;4.80;99.90;;;;;;821588;173;26449;-79
2024/02/28 02:22:19;;;;;;;149.20;58.70;;;4.80;99.90;;;;;;824681;172;26442;-78
2024/02/28 02:24:46;;;;;;;155.90;61.17;;;4.90;99.90;;;;;;817627;173;26446;-79
2024/02/28 02:27:12;;;;;;;161.23;61.07;;;4.90;99.90;;;;;;821645;173;26571;-80
2024/02/28 02:29:39;;;;;;;153.30;59.60;;;4.90;99.90;;;;;;815042;174;26425;-77
2024/02/28 02:32:06;;;;;;;157.57;59.13;;;4.90;99.90;;;;;;817827;173;26413;-79
2024/02/28 02:34:32;;;;;;;169.00;61.90;;;4.90;99.90;;;;;;813092;174;26960;-79
2024/02/28 02:36:59;;;;;;;157.60;63.67;;;4.90;99.90;;;;;;817876;172;26441;-78
2024/02/28 02:39:26;;;;;;;150.60;60.57;;;5.00;99.90;;;;;;816280;174;26425;-79
2024/02/28 02:41:52;;;;;;;155.07;62.40;;;5.00;99.90;;;;;;813291;172;26443;-79
2024/02/28 02:44:19;;;;;;;149.57;62.80;;;5.00;99.90;;;;;;831517;170;26394;-79
2024/02/28 02:46:45;;;;;;;144.10;59.43;;;5.00;99.90;;;;;;840674;170;26384;-79
2024/02/28 02:49:12;;;;;;;147.37;58.73;;;5.00;99.90;;;;;;840982;170;26530;-78
2024/02/28 02:51:39;;;;;;;150.63;59.50;;;5.00;99.90;;;;;;840004;170;26712;-79
2024/02/28 02:54:05;;;;;;;150.20;59.70;;;5.00;99.90;;;;;;839774;171;26405;-77
2024/02/28 02:56:32;;;;;;;159.17;61.60;;;5.00;99.90;;;;;;834393;170;26384;-78
2024/02/28 02:58:58;;;;;;;149.97;58.63;;;5.00;99.90;;;;;;820770;173;26411;-79
2024/02/28 03:01:25;;;;;;;154.43;59.97;;;5.00;99.90;;;;;;820365;173;26433;-79
2024/02/28 03:03:52;;;;;;;140.90;55.47;;;5.00;99.90;;;;;;828782;171;26414;-80
2024/02/28 03:06:18;;;;;;;138.80;57.83;;;5.00;99.90;;;;;;831631;170;26403;-79
2024/02/28 03:08:45;;;;;;;145.73;56.27;;;5.00;99.90;;;;;;830046;170;26385;-79
2024/02/28 03:11:11;;;;;;;159.07;60.63;;;5.10;99.90;;;;;;834155;170;26417;-79
2024/02/28 03:13:38;;;;;;;146.97;58.50;;;5.10;99.90;;;;;;834675;170;26387;-79
2024/02/28 03:16:05;;;;;;;148.57;58.47;;;5.20;99.90;;;;;;830803;170;27452;-81
2024/02/28 03:18:31;;;;;;;149.67;60.33;;;5.10;99.90;;;;;;831996;171;26956;-79
2024/02/28 03:20:58;;;;;;;151.63;59.60;;;5.10;99.90;;;;;;813080;174;26528;-79
2024/02/28 03:23:25;;;;;;;159.67;59.87;;;5.10;99.90;;;;;;832133;171;26380;-81
2024/02/28 03:25:51;;;;;;;150.50;56.67;;;4.90;99.90;;;;;;835853;169;26398;-77
2024/02/28 03:28:18;;;;;;;164.47;63.10;;;4.90;99.90;;;;;;836284;169;26384;-78
2024/02/28 03:30:44;;;;;;;154.43;57.70;;;4.90;99.90;;;;;;833394;170;26586;-76
2024/02/28 03:33:11;;;;;;;164.63;62.43;;;4.90;99.90;;;;;;842390;170;26405;-80
2024/02/28 03:35:38;;;;;;;137.30;51.70;;;4.80;99.90;;;;;;835152;170;26451;-79
2024/02/28 03:38:04;;;;;;;147.30;54.47;;;4.80;99.90;;;;;;823891;173;26431;-80
2024/02/28 03:40:31;;;;;;;147.53;55.90;;;4.70;99.90;;;;;;830408;170;26569;-78
2024/02/28 03:42:59;;;;;;;143.63;56.57;;;4.70;99.90;;;;;;841085;170;26954;-77
2024/02/28 03:45:24;;;;;;;162.07;55.33;;;4.70;99.90;;;;;;839682;170;26381;-80
2024/02/28 03:47:51;;;;;;;159.40;58.47;;;4.80;99.90;;;;;;837982;170;27045;-80
2024/02/28 03:50:17;;;;;;;146.10;53.13;;;4.80;99.90;;;;;;819611;173;26460;-77
2024/02/28 03:52:44;;;;;;;153.10;56.13;;;4.80;99.90;;;;;;829464;171;26387;-78
2024/02/28 03:55:10;;;;;;;167.90;57.13;;;4.70;99.90;;;;;;832539;170;26408;-76
2024/02/28 03:57:37;;;;;;;153.07;55.63;;;4.70;99.90;;;;;;835862;170;26406;-79
2024/02/28 04:00:04;;;;;;;154.30;54.33;;;4.70;99.90;;;;;;820419;172;27010;-80
2024/02/28 04:02:31;;;;;;;168.70;57.70;;;4.80;99.90;;;;;;821799;169;26373;-79
2024/02/28 04:04:57;;;;;;;147.53;53.27;;;4.80;99.90;;;;;;828857;171;26399;-80
2024/02/28 04:07:24;;;;;;;161.70;57.67;;;4.90;99.90;;;;;;829062;171;26389;-79
2024/02/28 04:09:50;;;;;;;157.70;54.73;;;4.90;99.90;;;;;;822269;173;26440;-78
2024/02/28 04:12:17;;;;;;;151.37;55.57;;;4.90;99.90;;;;;;822913;173;26437;-80
2024/02/28 04:14:44;;;;;;;160.97;56.93;;;4.90;99.90;;;;;;826903;170;26638;-79
2024/02/28 04:17:11;;;;;;;158.27;56.23;;;5.00;99.90;;;;;;832807;170;26950;-80
2024/02/28 04:19:39;;;;;;;158.90;57.90;;;5.00;99.90;;;;;;839195;171;26382;-78
2024/02/28 04:22:04;;;;;;;171.93;59.00;;;4.90;99.90;;;;;;838379;170;26401;-78
2024/02/28 04:24:32;;;;;;;168.10;60.30;;;5.00;99.90;;;;;;819051;173;26435;-79
2024/02/28 04:26:59;;;;;;;168.70;60.93;;;4.80;99.90;;;;;;818129;173;26977;-75
2024/02/28 04:29:24;;;;;;;169.43;59.80;;;4.80;99.90;;;;;;833474;171;26391;-79
2024/02/28 04:31:51;;;;;;;175.93;61.57;;;4.80;99.90;;;;;;823533;173;26567;-79
2024/02/28 04:34:17;;;;;;;153.97;56.70;;;4.80;99.90;;;;;;829531;171;26368;-80
2024/02/28 04:36:44;;;;;;;162.80;59.10;;;4.80;99.90;;;;;;832396;171;26383;-78
2024/02/28 04:39:10;;;;;;;165.57;58.47;;;4.80;99.90;;;;;;827317;173;26424;-78
2024/02/28 04:41:37;;;;;;;151.70;56.80;;;4.80;99.90;;;;;;817772;173;26415;-79
2024/02/28 04:44:04;;;;;;;163.87;59.53;;;4.90;99.90;;;;;;839770;169;26966;-78
2024/02/28 04:46:30;;;;;;;157.93;52.30;;;4.80;99.90;;;;;;821315;173;26413;-78
2024/02/28 04:48:57;;;;;;;166.17;59.03;;;4.80;99.90;;;;;;820020;173;26413;-78
2024/02/28 04:51:23;;;;;;;179.67;59.67;;;4.80;99.90;;;;;;838154;171;26421;-79
2024/02/28 04:53:50;;;;;;;167.80;57.20;;;4.80;99.90;;;;;;827180;170;26546;-80
2024/02/28 04:56:17;;;;;;;168.00;60.37;;;4.80;99.90;;;;;;821027;173;26989;-79
2024/02/28 04:58:43;;;;;;;182.17;60.90;;;4.60;99.90;;;;;;821188;173;26403;-79
2024/02/28 05:01:10;;;;;;;177.27;59.20;;;4.60;99.90;;;;;;826941;173;26435;-81
2024/02/28 05:03:37;;;;;;;171.20;57.63;;;4.60;99.90;;;;;;830355;171;26392;-81
2024/02/28 05:06:04;;;;;;;164.70;55.07;;;4.60;99.90;;;;;;827838;171;26836;-79
2024/02/28 05:08:30;;;;;;;169.63;58.30;;;4.50;99.90;;;;;;835030;171;26412;-76
2024/02/28 05:10:56;;;;;;;163.93;57.33;;;4.60;99.90;;;;;;837724;170;26422;-77
2024/02/28 05:13:24;;;;;;;170.47;55.77;;;4.60;99.90;;;;;;839955;170;26380;-78
2024/02/28 05:15:50;;;;;;;159.93;57.87;;;4.50;99.90;;;;;;834999;170;26394;-78
2024/02/28 05:18:16;;;;;;;161.20;54.67;;;4.40;99.90;;;;;;834028;170;26432;-76
2024/02/28 05:20:43;;;;;;;173.50;57.23;;;4.40;99.90;;;;;;813765;173;26426;-79
2024/02/28 05:23:10;;;;;;;163.07;56.10;;;4.40;99.90;;;;;;815144;173;26409;-77
2024/02/28 05:25:36;;;;;;;173.60;58.77;;;4.50;99.90;;;;;;816186;174;26950;-79
2024/02/28 05:28:03;;;;;;;162.90;56.87;;;4.60;99.90;;;;;;822426;173;26382;-80
2024/02/28 05:30:30;;;;;;;162.83;56.83;;;4.60;99.90;;;;;;817669;174;26512;-75
2024/02/28 05:32:56;;;;;;;159.30;54.93;;;4.70;99.90;;;;;;823390;173;26376;-80
2024/02/28 05:35:23;;;;;;;162.47;54.73;;;4.70;99.90;;;;;;816728;173;26434;-80
2024/02/28 05:37:49;;;;;;;159.03;55.97;;;4.70;99.90;;;;;;823088;173;26447;-80
2024/02/28 05:40:16;;;;;;;175.30;59.33;;;4.60;99.90;;;;;;817561;173;26423;-78
2024/02/28 05:42:43;;;;;;;170.53;56.50;;;4.70;99.90;;;;;;818878;173;26976;-76
2024/02/28 05:45:10;;;;;;;148.83;54.00;;;4.80;99.90;;;;;;814620;173;26385;-77
2024/02/28 05:47:36;;;;;;;161.57;56.50;;;4.80;99.90;;;;;;815045;174;26976;-79
2024/02/28 05:50:03;;;;;;;161.83;54.73;;;4.80;99.90;;;;;;818121;170;26463;-79
2024/02/28 05:52:29;;;;;;;141.87;54.03;;;4.90;99.90;;;;;;827187;173;26404;-80
2024/02/28 05:54:56;;;;;;;154.90;55.90;;;4.80;99.90;;;;;;836419;170;26390;-78
2024/02/28 05:57:23;;;;;;;159.03;56.20;;;4.90;99.90;;;;;;819691;173;26989;-79
2024/02/28 05:59:49;;;;;;;157.30;54.17;;;4.90;99.90;;;;;;835741;170;27032;-79
2024/02/28 06:02:16;;;;;;;150.77;54.43;;;4.90;99.90;;;;;;823237;173;26448;-79
2024/02/28 06:04:42;;;;;;;165.60;55.63;;;4.90;99.90;;;;;;837815;170;26393;-78
2024/02/28 06:07:09;;;;;;;154.27;53.57;;;4.90;99.90;;;;;;837662;170;26404;-80
2024/02/28 06:09:35;;;;;;;157.17;55.93;;;5.00;99.90;;;;;;824429;173;26451;-79
2024/02/28 06:12:02;;;;;;;158.33;56.27;;;4.90;99.90;;;;;;825768;170;26404;-76
2024/02/28 06:14:29;;;;;;;170.17;56.20;;;4.90;99.90;;;;;;835783;170;26411;-80
2024/02/28 06:16:55;;;;;;;168.30;59.83;;;4.90;99.90;;;;;;831420;170;26922;-79
2024/02/28 06:19:22;;;;;;;174.67;56.13;;;4.80;99.90;;;;;;828812;170;26391;-78
2024/02/28 06:21:49;;;;;;;162.37;55.53;;;4.80;99.90;;;;;;834328;170;26470;-78
2024/02/28 06:24:15;;;;;;;164.07;54.83;;;4.90;99.90;;;;;;816901;173;26415;-79
2024/02/28 06:26:43;;;;;;;154.50;55.07;;;4.90;99.90;;;;;;831332;171;26564;-79
2024/02/28 06:29:08;;;;;;;171.57;54.33;;;4.70;99.90;;;;;;838282;170;26384;-76
2024/02/28 06:31:35;;;;;;;161.93;53.20;;;4.80;99.90;;;;;;831859;170;26427;-77
2024/02/28 06:34:02;;;;;;;158.30;53.77;;;4.90;99.90;;;;;;814495;173;27026;-77
2024/02/28 06:36:28;;;;;;;163.83;55.53;;;4.90;99.90;;;;;;813644;175;26462;-75
2024/02/28 06:38:54;;;;;;;174.60;57.67;;;4.90;99.90;;;;;;825046;171;27009;-76
2024/02/28 06:41:21;;;;;;;154.43;52.43;;;4.80;99.90;;;;;;827510;170;26439;-76
2024/02/28 06:43:48;;;;;;;157.53;52.97;;;4.80;99.90;;;;;;824469;171;27040;-75
2024/02/28 06:46:14;;;;;;;156.83;52.83;;;4.90;99.90;;;;;;828399;170;26426;-80
2024/02/28 06:48:41;;;;;;;153.67;53.27;;;4.90;99.90;;;;;;837984;171;26972;-80
2024/02/28 06:51:07;;;;;;;161.30;52.63;;;4.90;99.90;;;;;;838751;170;26400;-80
2024/02/28 06:53:34;;;;;;;165.83;56.73;;;4.90;99.90;;;;;;841667;170;26419;-80
2024/02/28 06:56:01;;;;;;;174.37;58.57;;;4.70;99.90;;;;;;820411;173;26421;-79
2024/02/28 06:58:27;;;;;;;160.93;56.87;;;4.70;99.90;;;;;;822080;173;26400;-80
2024/02/28 07:00:54;;;;;;;191.30;59.07;;;4.80;99.90;;;;;;832314;169;26666;-79
2024/02/28 07:03:20;;;;;;;191.43;61.23;;;4.80;99.90;;;;;;823127;173;26450;-79
2024/02/28 07:05:47;;;;;;;189.50;60.07;;;4.90;99.90;;;;;;821857;172;26455;-77
2024/02/28 07:08:14;;;;;;;187.73;61.50;;;4.80;99.90;;;;;;822893;173;26410;-79
2024/02/28 07:10:43;;;;;;;193.50;60.90;;;4.80;99.90;;;;;;837688;170;26402;-80
2024/02/28 07:13:07;;;;;;;184.13;58.83;;;4.90;99.90;;;;;;830240;171;27995;-78
2024/02/28 07:15:33;;;;;;;179.47;56.67;;;5.00;99.90;;;;;;823043;173;26413;-77
2024/02/28 07:18:00;;;;;;;166.93;56.37;;;4.90;99.90;;;;;;834980;171;26946;-78
2024/02/28 07:20:27;;;;;;;167.87;56.73;;;4.90;99.90;;;;;;836039;170;26469;-78
2024/02/28 07:22:53;;;;;;;165.90;55.77;;;4.90;99.90;;;;;;836542;170;26401;-79
2024/02/28 07:25:20;;;;;;;167.27;54.80;;;5.00;99.90;;;;;;834086;170;26420;-80
2024/02/28 07:27:46;;;;;;;153.03;55.10;;;5.00;99.90;;;;;;821240;173;26396;-79
2024/02/28 07:30:13;;;;;;;153.37;54.07;;;5.00;99.90;;;;;;819316;173;26412;-79
2024/02/28 07:32:40;;;;;;;163.47;54.50;;;5.00;99.90;;;;;;821408;173;26427;-77
2024/02/28 07:35:07;;;;;;;160.63;53.57;;;5.10;99.90;;;;;;816870;173;26506;-79
2024/02/28 07:37:33;;;;;;;170.83;55.63;;;5.10;99.90;;;;;;816723;173;26406;-77
2024/02/28 07:40:00;;;;;;;164.50;52.23;;;5.10;99.90;;;;;;818672;173;26591;-80
2024/02/28 07:42:27;;;;;;;179.73;55.83;;;5.10;99.90;;;;;;817900;169;26490;-76
2024/02/28 07:44:56;;;;;;;165.43;57.40;;;5.20;99.90;;;;;;809787;176;26505;-78
2024/02/28 07:47:20;;;;;;;166.30;54.73;;;5.30;99.90;;;;;;809743;176;26429;-77
2024/02/28 07:49:46;;;;;;;153.30;53.30;;;5.30;99.90;;;;;;812298;174;26420;-78
2024/02/28 07:52:14;;;;;;;161.70;56.30;;;5.40;99.90;;;;;;810449;176;26462;-78
2024/02/28 07:54:43;;;;;;;142.17;51.63;;;5.40;99.90;;;;;;809539;176;26561;-74
2024/02/28 07:57:10;;;;;;;159.83;54.27;;;5.40;99.90;;;;;;812030;176;26419;-77
2024/02/28 07:59:40;;;;;;;155.87;56.83;;;5.30;99.90;;;;;;813286;176;27027;-77
2024/02/28 08:02:06;;;;;;;157.30;55.20;;;5.40;99.90;;;;;;811255;175;26482;-77
2024/02/28 08:04:34;;;;;;;165.33;55.27;;;5.30;99.90;;;;;;811907;176;26463;-76
2024/02/28 08:06:59;;;;;;;155.37;53.03;;;5.50;99.90;;;;;;810970;176;26431;-76
2024/02/28 08:09:26;;;;;;;163.53;55.13;;;5.60;99.90;;;;;;811443;176;26452;-78
2024/02/28 08:11:53;;;;;;;156.03;56.27;;;5.80;99.90;;;;;;812907;174;26490;-77
2024/02/28 08:14:19;;;;;;;147.67;54.57;;;5.90;99.90;;;;;;813003;175;26485;-77
2024/02/28 08:16:46;;;;;;;147.93;52.03;;;6.00;99.90;;;;;;812255;176;26424;-77
2024/02/28 08:19:12;;;;;;;144.10;53.50;;;6.10;99.90;;;;;;812169;176;26446;-76
2024/02/28 08:21:39;;;;;;;144.40;54.47;;;6.10;99.90;;;;;;812033;176;26485;-78
2024/02/28 08:24:06;;;;;;;139.80;53.60;;;6.30;99.90;;;;;;813626;176;26457;-78
2024/02/28 08:26:32;;;;;;;140.43;52.13;;;6.20;99.90;;;;;;812218;176;26425;-78
2024/02/28 08:28:59;;;;;;;138.60;53.07;;;6.30;99.90;;;;;;814171;176;26456;-78
2024/02/28 08:31:26;;;;;;;144.27;55.90;;;6.40;99.90;;;;;;811651;176;26481;-78
2024/02/28 08:33:52;;;;;;;138.13;55.37;;;6.60;99.90;;;;;;811097;176;26471;-77
2024/02/28 08:36:19;;;;;;;143.17;53.07;;;6.60;99.90;;;;;;810863;176;26432;-77
2024/02/28 08:38:45;;;;;;;131.60;52.20;;;6.50;99.90;;;;;;811410;176;26454;-77
2024/02/28 08:41:12;;;;;;;135.93;54.63;;;6.70;99.90;;;;;;811503;176;26440;-77
2024/02/28 08:43:39;;;;;;;137.80;53.90;;;6.80;99.90;;;;;;815745;175;26431;-77
2024/02/28 08:46:05;;;;;;;135.87;53.83;;;6.80;99.90;;;;;;812008;174;26432;-78
2024/02/28 08:48:32;;;;;;;131.43;53.37;;;6.70;99.90;;;;;;813999;176;26439;-78
2024/02/28 08:50:58;;;;;;;133.57;54.33;;;6.70;99.90;;;;;;811671;176;26437;-77
2024/02/28 08:53:25;;;;;;;136.40;52.63;;;6.70;99.90;;;;;;814225;175;26456;-77
2024/02/28 08:55:51;;;;;;;136.27;52.83;;;6.70;99.90;;;;;;810149;176;26601;-77
2024/02/28 08:58:18;;;;;;;125.93;51.37;;;6.70;99.90;;;;;;811929;176;26569;-78
2024/02/28 09:00:45;;;;;;;123.27;51.80;;;6.60;99.90;;;;;;813591;176;26435;-77
2024/02/28 09:03:11;;;;;;;116.63;50.03;;;6.70;99.90;;;;;;809987;176;26471;-76
2024/02/28 09:05:38;;;;;;;111.03;47.93;;;6.70;99.90;;;;;;810353;176;26431;-78
2024/02/28 09:08:05;;;;;;;118.73;50.43;;;6.80;99.90;;;;;;810500;176;28789;-77
2024/02/28 09:10:34;;;;;;;106.57;47.40;;;6.70;99.90;;;;;;811921;176;27029;-78
2024/02/28 09:12:58;;;;;;;114.87;49.07;;;6.60;99.90;;;;;;810975;176;26802;-77
2024/02/28 09:15:25;;;;;;;110.63;46.27;;;6.60;99.90;;;;;;811584;176;28866;-78
2024/02/28 09:17:52;;;;;;;105.60;46.70;;;6.50;99.90;;;;;;811111;176;26454;-78
2024/02/28 09:20:18;;;;;;;115.90;49.87;;;6.50;99.90;;;;;;812388;173;26423;-78
2024/02/28 09:22:44;;;;;;;116.13;46.20;;;6.60;99.90;;;;;;811524;176;26460;-78
2024/02/28 09:25:11;;;;;;;105.17;47.57;;;6.40;99.90;;;;;;814892;173;26424;-78
2024/02/28 09:27:37;;;;;;;111.33;45.83;;;6.50;99.90;;;;;;815120;175;26465;-78
2024/02/28 09:30:05;;;;;;;120.27;48.97;;;6.70;99.90;;;;;;813641;173;26434;-78
2024/02/28 09:32:32;;;;;;;105.40;47.20;;;6.90;99.90;;;;;;813975;176;27029;-78
2024/02/28 09:34:58;;;;;;;121.40;49.73;;;6.80;99.90;;;;;;813822;176;26492;-77
2024/02/28 09:37:25;;;;;;;103.57;47.27;;;7.00;99.90;;;;;;811939;176;26457;-77
2024/02/28 09:39:53;;;;;;;112.50;48.47;;;7.00;99.90;;;;;;811520;176;26453;-77
2024/02/28 09:42:18;;;;;;;101.33;46.10;;;7.20;99.90;;;;;;811098;176;27007;-77
2024/02/28 09:44:45;;;;;;;104.70;45.93;;;7.40;99.90;;;;;;811031;176;26449;-77
2024/02/28 09:47:12;;;;;;;98.43;44.13;;;7.70;99.90;;;;;;810441;177;26425;-77
2024/02/28 09:49:38;;;;;;;108.13;48.13;;;7.70;99.90;;;;;;812735;176;26419;-78
2024/02/28 09:52:05;;;;;;;105.10;46.13;;;7.60;99.90;;;;;;814552;176;26468;-78
2024/02/28 09:54:32;;;;;;;101.50;47.00;;;7.70;99.90;;;;;;812889;176;26440;-78
2024/02/28 09:56:58;;;;;;;98.70;46.00;;;8.00;99.90;;;;;;810859;176;26492;-78
2024/02/28 09:59:25;;;;;;;100.80;46.17;;;7.40;99.90;;;;;;811405;176;27030;-78
2024/02/28 10:01:52;;;;;;;102.03;44.97;;;7.70;99.90;;;;;;810030;176;26473;-77
2024/02/28 10:04:19;;;;;;;108.50;46.93;;;7.90;99.90;;;;;;810057;176;26445;-78
2024/02/28 10:06:45;;;;;;;96.70;44.67;;;8.20;99.90;;;;;;810232;176;27003;-78
2024/02/28 10:09:12;;;;;;;99.27;45.20;;;8.30;99.90;;;;;;811846;174;26468;-78
2024/02/28 10:11:40;;;;;;;99.17;44.70;;;8.30;99.90;;;;;;809976;176;26623;-77
2024/02/28 10:14:05;;;;;;;94.47;45.53;;;8.60;99.90;;;;;;810950;176;26431;-78
2024/02/28 10:16:32;;;;;;;93.60;46.47;;;9.00;99.90;;;;;;810664;176;26954;-79
2024/02/28 10:18:58;;;;;;;98.53;44.53;;;8.90;99.90;;;;;;811559;176;26577;-78
2024/02/28 10:21:26;;;;;;;98.53;46.50;;;8.80;99.90;;;;;;810300;176;26684;-78
2024/02/28 10:23:52;;;;;;;99.40;45.53;;;8.90;99.90;;;;;;810638;176;26475;-78
2024/02/28 10:26:18;;;;;;;98.93;46.27;;;9.00;99.90;;;;;;812166;176;26415;-78
2024/02/28 10:28:45;;;;;;;92.87;45.03;;;9.40;99.90;;;;;;811747;176;26416;-77
2024/02/28 10:31:12;;;;;;;99.77;45.20;;;9.60;99.90;;;;;;814303;176;26452;-78
2024/02/28 10:33:38;;;;;;;93.50;44.73;;;9.40;99.90;;;;;;811417;176;26451;-78
2024/02/28 10:36:05;;;;;;;94.67;45.80;;;9.40;99.90;;;;;;812495;175;26448;-78
2024/02/28 10:38:33;;;;;;;98.20;46.30;;;9.50;99.90;;;;;;812763;176;26415;-78
2024/02/28 10:40:58;;;;;;;97.03;45.57;;;9.50;99.90;;;;;;813493;176;26439;-78
2024/02/28 10:43:25;;;;;;;90.97;43.30;;;9.70;99.90;;;;;;812631;175;26434;-78
2024/02/28 10:45:51;;;;;;;91.53;44.27;;;9.90;99.90;;;;;;812673;176;26452;-77
2024/02/28 10:48:18;;;;;;;92.87;45.10;;;9.80;99.90;;;;;;811886;176;27020;-78
2024/02/28 10:50:44;;;;;;;93.20;45.30;;;10.00;99.90;;;;;;811996;176;26610;-78
2024/02/28 10:53:12;;;;;;;96.50;45.57;;;10.20;99.90;;;;;;812754;176;26468;-78
2024/02/28 10:55:39;;;;;;;93.07;42.97;;;10.30;99.90;;;;;;812494;176;27036;-78
2024/02/28 10:58:08;;;;;;;89.63;44.20;;;10.30;99.90;;;;;;810264;176;26468;-77
2024/02/28 11:00:34;;;;;;;87.27;42.93;;;10.10;99.90;;;;;;810757;176;26558;-78
2024/02/28 11:03:03;;;;;;;84.67;42.33;;;10.30;99.90;;;;;;811049;176;26627;-79
2024/02/28 11:05:46;;;;;;;83.70;40.70;;;11.40;99.90;;;;;;811333;176;26436;-78
2024/02/28 11:08:11;;;;;;;87.07;42.27;;;11.30;96.50;;;;;;814749;176;26422;-78
2024/02/28 11:10:42;;;;;;;80.23;42.50;;;12.10;95.70;;;;;;810885;174;26456;-78
2024/02/28 11:13:10;;;;;;;78.37;39.60;;;11.30;94.00;;;;;;811257;176;26606;-78
2024/02/28 11:15:35;;;;;;;81.83;40.13;;;11.30;96.20;;;;;;812354;176;26424;-78
2024/02/28 11:18:09;;;;;;;73.40;37.53;;;12.30;98.30;;;;;;810489;177;26434;-79
2024/02/28 11:20:36;;;;;;;79.07;41.80;;;12.60;96.10;;;;;;810605;176;27066;-78
2024/02/28 11:23:02;;;;;;;72.93;39.00;;;13.20;94.00;;;;;;811334;176;26469;-79
2024/02/28 11:25:29;;;;;;;71.27;37.90;;;13.40;90.90;;;;;;810919;176;26455;-78
2024/02/28 11:27:56;;;;;;;72.53;40.63;;;13.50;93.20;;;;;;811454;176;27032;-78
2024/02/28 11:30:22;;;;;;;72.20;41.20;;;13.40;91.00;;;;;;815346;175;26443;-79
2024/02/28 11:32:49;;;;;;;69.23;39.30;;;13.60;91.20;;;;;;812404;176;26460;-78
2024/02/28 11:35:15;;;;;;;75.23;41.60;;;14.30;91.10;;;;;;811221;176;26467;-78
2024/02/28 11:37:42;;;;;;;72.43;40.30;;;14.40;84.10;;;;;;813189;176;26444;-78
2024/02/28 11:40:10;;;;;;;69.70;38.90;;;14.50;82.10;;;;;;811922;176;27018;-78
2024/02/28 11:42:36;;;;;;;74.60;41.73;;;15.00;89.40;;;;;;810916;176;26473;-78
2024/02/28 11:45:05;;;;;;;67.60;39.73;;;14.20;80.60;;;;;;812313;176;26440;-79
2024/02/28 11:47:32;;;;;;;71.17;39.33;;;14.40;80.70;;;;;;812610;174;26456;-78
2024/02/28 11:50:00;;;;;;;64.40;39.47;;;14.90;78.40;;;;;;813436;176;26464;-78
2024/02/28 11:52:26;;;;;;;70.77;39.23;;;13.30;78.40;;;;;;811824;177;26447;-77
2024/02/28 11:54:53;;;;;;;64.73;38.20;;;13.90;89.30;;;;;;814383;176;26432;-78
2024/02/28 11:57:19;;;;;;;65.27;36.47;;;13.50;86.00;;;;;;812831;174;26437;-78
2024/02/28 11:59:45;;;;;;;64.23;37.50;;;14.80;84.10;;;;;;814093;176;26463;-79
2024/02/28 12:02:13;;;;;;;65.30;36.80;;;15.90;67.90;;;;;;812338;176;26448;-78
2024/02/28 12:04:39;;;;;;;63.67;37.90;;;16.70;79.90;;;;;;814169;176;26437;-79
2024/02/28 12:07:05;;;;;;;65.27;39.23;;;16.10;59.70;;;;;;811166;172;26462;-79
2024/02/28 12:09:32;;;;;;;67.77;39.97;;;16.70;57.80;;;;;;812557;174;26440;-78
2024/02/28 12:12:01;;;;;;;70.27;37.07;;;16.00;57.20;;;;;;812366;176;27023;-78
2024/02/28 12:14:28;;;;;;;57.47;35.80;;;17.00;54.70;;;;;;810574;176;26475;-77
2024/02/28 12:16:54;;;;;;;57.97;35.90;;;16.80;63.60;;;;;;812074;176;26425;-78
2024/02/28 12:19:21;;;;;;;61.37;38.07;;;16.00;55.10;;;;;;811350;176;26456;-78
2024/02/28 12:21:48;;;;;;;59.80;35.63;;;15.90;55.00;;;;;;812531;176;27065;-78
2024/02/28 12:24:14;;;;;;;64.67;36.87;;;14.30;64.60;;;;;;811169;176;26429;-78